Time;durP1;ratioP1;P1;durP2;ratioP2;P2;SDS_P1;SDS_P2;PMS_P1;PMS_P2;Temp;Humidity;BMP_temperature;BMP_pressure;BME280_temperature;BME280_humidity;BME280_pressure;Samples;Min_cycle;Max_cycle;Signal;HPM_P1;HPM_P2
2024/03/19 00:00:50;;;;;;;15.38;11.15;;;11.30;91.60;;;;;;5041489;28;20048;-62
2024/03/19 00:03:16;;;;;;;14.30;11.60;;;11.30;91.70;;;;;;5047357;28;20275;-63
2024/03/19 00:05:42;;;;;;;15.02;10.63;;;11.30;91.60;;;;;;5041491;28;20101;-61
2024/03/19 00:08:08;;;;;;;14.48;10.77;;;11.40;91.60;;;;;;5042657;28;20036;-63
2024/03/19 00:10:33;;;;;;;14.48;11.20;;;11.40;91.60;;;;;;5049881;28;20059;-62
2024/03/19 00:12:59;;;;;;;15.25;11.30;;;11.40;91.60;;;;;;5042393;28;20448;-63
2024/03/19 00:15:25;;;;;;;15.10;11.50;;;11.40;91.50;;;;;;5038842;28;20051;-62
2024/03/19 00:17:52;;;;;;;14.45;11.38;;;11.50;91.50;;;;;;5042943;28;20029;-63
2024/03/19 00:20:18;;;;;;;14.32;10.80;;;11.50;91.50;;;;;;5039229;28;20037;-63
2024/03/19 00:22:44;;;;;;;15.73;11.02;;;11.50;91.50;;;;;;5044364;28;20033;-62
2024/03/19 00:25:10;;;;;;;15.57;11.55;;;11.50;91.50;;;;;;5050067;28;20036;-62
2024/03/19 00:27:36;;;;;;;14.25;11.02;;;11.50;91.60;;;;;;5040707;28;20120;-61
2024/03/19 00:30:08;;;;;;;13.93;10.77;;;11.50;91.50;;;;;;5048724;28;20033;-62
2024/03/19 00:32:34;;;;;;;12.50;10.10;;;11.50;91.50;;;;;;5048233;28;20508;-63
2024/03/19 00:34:59;;;;;;;15.32;11.75;;;11.60;91.50;;;;;;5044663;28;20056;-63
2024/03/19 00:37:27;;;;;;;14.90;11.32;;;11.50;91.40;;;;;;5047637;28;20064;-63
2024/03/19 00:39:53;;;;;;;15.32;11.57;;;11.60;91.40;;;;;;5043962;28;20040;-63
2024/03/19 00:42:18;;;;;;;15.57;11.30;;;11.60;91.40;;;;;;5040586;28;20041;-62
2024/03/19 00:44:44;;;;;;;15.68;11.65;;;11.60;91.40;;;;;;5042236;28;20064;-62
2024/03/19 00:47:10;;;;;;;17.42;12.48;;;11.60;91.40;;;;;;5043205;28;20033;-62
2024/03/19 00:49:35;;;;;;;15.45;11.75;;;11.60;91.40;;;;;;5043657;28;20036;-62
2024/03/19 00:52:01;;;;;;;16.92;11.88;;;11.60;91.40;;;;;;5045638;28;20033;-62
2024/03/19 00:54:26;;;;;;;16.85;11.32;;;11.60;91.30;;;;;;5045569;28;20041;-62
2024/03/19 00:56:52;;;;;;;17.77;11.63;;;11.60;91.30;;;;;;5044853;28;20045;-63
2024/03/19 00:59:18;;;;;;;17.23;11.45;;;11.60;91.20;;;;;;5040965;28;20412;-62
2024/03/19 01:01:45;;;;;;;14.63;11.07;;;11.60;91.20;;;;;;5043744;28;20496;-63
2024/03/19 01:04:10;;;;;;;14.35;10.73;;;11.60;91.20;;;;;;5042087;28;20053;-62
2024/03/19 01:06:36;;;;;;;13.93;10.43;;;11.50;91.20;;;;;;5044841;28;20064;-62
2024/03/19 01:09:05;;;;;;;16.15;11.45;;;11.60;91.20;;;;;;5044606;28;20044;-62
2024/03/19 01:11:34;;;;;;;16.00;11.40;;;11.60;91.30;;;;;;5046293;28;20068;-64
2024/03/19 01:13:59;;;;;;;17.23;10.93;;;11.50;91.70;;;;;;5046397;28;20041;-63
2024/03/19 01:16:26;;;;;;;16.17;11.27;;;11.50;91.30;;;;;;5043853;28;20048;-63
2024/03/19 01:18:51;;;;;;;19.92;12.40;;;11.40;91.30;;;;;;5043646;28;20044;-61
2024/03/19 01:21:17;;;;;;;20.40;12.93;;;11.40;91.30;;;;;;5043867;28;20367;-62
2024/03/19 01:23:44;;;;;;;18.45;12.82;;;11.40;91.30;;;;;;5044834;28;20508;-63
2024/03/19 01:26:10;;;;;;;19.58;12.55;;;11.40;91.30;;;;;;5047341;28;20492;-62
2024/03/19 01:28:36;;;;;;;18.90;12.27;;;11.40;91.30;;;;;;5041450;28;20135;-61
2024/03/19 01:31:02;;;;;;;17.30;12.38;;;11.30;91.40;;;;;;5043961;28;20060;-62
2024/03/19 01:33:27;;;;;;;18.95;12.50;;;11.30;91.40;;;;;;5046329;28;20048;-62
2024/03/19 01:35:53;;;;;;;17.98;12.30;;;11.30;91.50;;;;;;5046292;28;20416;-62
2024/03/19 01:38:24;;;;;;;18.52;12.02;;;11.20;91.50;;;;;;5046233;28;20040;-59
2024/03/19 01:40:50;;;;;;;19.00;12.45;;;11.20;91.50;;;;;;5046275;28;20060;-61
2024/03/19 01:43:20;;;;;;;17.73;11.52;;;11.30;91.50;;;;;;5047292;28;20455;-62
2024/03/19 01:46:05;;;;;;;17.70;12.05;;;11.20;91.50;;;;;;5045557;28;20455;-62
2024/03/19 01:48:34;;;;;;;18.83;12.30;;;11.30;91.70;;;;;;5042136;28;20033;-61
2024/03/19 01:51:00;;;;;;;16.95;11.70;;;11.20;91.50;;;;;;5047232;28;20060;-62
2024/03/19 01:53:27;;;;;;;17.70;12.40;;;11.20;91.50;;;;;;5047557;28;20563;-62
2024/03/19 01:55:53;;;;;;;19.52;12.85;;;11.20;91.60;;;;;;5045963;28;20044;-62
2024/03/19 01:58:22;;;;;;;20.48;12.40;;;11.20;91.70;;;;;;5046411;28;20400;-62
2024/03/19 02:00:48;;;;;;;19.38;12.75;;;11.20;91.70;;;;;;5044755;28;20145;-63
2024/03/19 02:03:18;;;;;;;18.40;12.32;;;11.20;91.70;;;;;;5042290;28;20029;-62
2024/03/19 02:05:46;;;;;;;21.77;12.75;;;11.20;91.70;;;;;;5045471;28;20029;-60
2024/03/19 02:08:12;;;;;;;19.58;12.35;;;11.20;91.70;;;;;;5044639;28;20050;-60
2024/03/19 02:10:38;;;;;;;19.90;12.20;;;11.20;91.70;;;;;;5047302;28;20489;-62
2024/03/19 02:13:04;;;;;;;17.80;11.48;;;11.20;91.70;;;;;;5044268;28;20045;-60
2024/03/19 02:15:29;;;;;;;18.92;12.35;;;11.20;91.60;;;;;;5043505;28;20064;-62
2024/03/19 02:17:55;;;;;;;19.58;11.70;;;11.30;91.60;;;;;;5043919;28;20120;-62
2024/03/19 02:20:21;;;;;;;19.20;11.90;;;11.30;91.60;;;;;;5046903;28;20030;-62
2024/03/19 02:22:47;;;;;;;18.40;11.25;;;11.30;91.60;;;;;;5045355;28;20040;-62
2024/03/19 02:25:13;;;;;;;18.13;11.65;;;11.30;91.60;;;;;;5043648;28;20040;-62
2024/03/19 02:27:40;;;;;;;16.73;10.95;;;11.30;91.50;;;;;;5046816;28;20037;-61
2024/03/19 02:30:08;;;;;;;17.02;11.43;;;11.30;91.90;;;;;;5048776;28;20029;-62
2024/03/19 02:32:34;;;;;;;15.55;11.23;;;11.30;91.50;;;;;;5044363;28;20036;-61
2024/03/19 02:35:00;;;;;;;17.83;11.30;;;11.20;91.40;;;;;;5047624;28;20471;-59
2024/03/19 02:37:26;;;;;;;15.63;10.75;;;11.20;91.40;;;;;;5051038;28;20045;-62
2024/03/19 02:39:52;;;;;;;15.73;11.07;;;11.20;91.50;;;;;;5047623;28;20033;-61
2024/03/19 02:42:19;;;;;;;16.80;11.23;;;11.20;91.50;;;;;;5052966;28;20067;-62
2024/03/19 02:44:45;;;;;;;16.60;11.35;;;11.20;91.50;;;;;;5045225;28;20059;-62
2024/03/19 02:47:11;;;;;;;19.60;11.60;;;11.20;91.50;;;;;;5045144;28;20040;-61
2024/03/19 02:49:36;;;;;;;19.08;11.88;;;11.20;91.50;;;;;;5039862;28;20029;-61
2024/03/19 02:52:02;;;;;;;18.48;11.18;;;11.20;91.60;;;;;;5049881;28;20061;-60
2024/03/19 02:54:28;;;;;;;21.33;12.05;;;11.20;91.70;;;;;;5043081;28;20418;-62
2024/03/19 02:56:53;;;;;;;23.27;11.82;;;11.10;91.70;;;;;;5041257;28;20075;-62
2024/03/19 02:59:19;;;;;;;22.42;12.55;;;11.20;91.70;;;;;;5040785;28;20071;-60
2024/03/19 03:01:44;;;;;;;20.17;11.82;;;11.20;91.70;;;;;;5045213;28;20382;-61
2024/03/19 03:04:12;;;;;;;18.58;11.35;;;11.20;91.70;;;;;;5045934;28;20045;-61
2024/03/19 03:06:37;;;;;;;18.33;11.82;;;11.20;91.70;;;;;;5041991;28;20041;-62
2024/03/19 03:09:05;;;;;;;21.98;12.40;;;11.30;91.70;;;;;;5046903;28;20047;-62
2024/03/19 03:11:31;;;;;;;22.30;12.95;;;11.30;91.70;;;;;;5042807;28;20041;-62
2024/03/19 03:13:57;;;;;;;21.75;12.50;;;11.30;91.70;;;;;;5048568;28;20047;-62
2024/03/19 03:16:22;;;;;;;21.70;11.95;;;11.30;91.70;;;;;;5044867;28;20029;-62
2024/03/19 03:18:49;;;;;;;20.55;11.45;;;11.30;91.60;;;;;;5050475;28;20060;-61
2024/03/19 03:21:14;;;;;;;20.40;12.25;;;11.30;91.50;;;;;;5049562;28;20076;-62
2024/03/19 03:23:40;;;;;;;20.63;11.30;;;11.30;91.50;;;;;;5042827;28;20033;-63
2024/03/19 03:26:06;;;;;;;21.08;11.60;;;11.30;91.50;;;;;;5040857;28;20571;-63
2024/03/19 03:28:31;;;;;;;20.73;11.25;;;11.30;91.50;;;;;;5048291;28;20037;-63
2024/03/19 03:30:57;;;;;;;19.45;11.02;;;11.30;91.50;;;;;;5037175;28;20036;-63
2024/03/19 03:33:23;;;;;;;17.98;9.90;;;11.30;91.60;;;;;;5043984;28;20297;-63
2024/03/19 03:35:48;;;;;;;22.02;11.65;;;11.30;91.60;;;;;;5048993;28;20042;-62
2024/03/19 03:38:14;;;;;;;20.95;11.50;;;11.20;91.60;;;;;;5042907;28;20426;-62
2024/03/19 03:40:40;;;;;;;21.20;11.60;;;11.30;91.70;;;;;;5037491;28;20036;-63
2024/03/19 03:43:05;;;;;;;22.92;11.13;;;11.20;91.60;;;;;;5045068;28;20037;-62
2024/03/19 03:45:31;;;;;;;21.63;10.88;;;11.30;91.60;;;;;;5047126;28;20413;-61
2024/03/19 03:47:56;;;;;;;19.15;10.32;;;11.20;91.60;;;;;;5046141;28;20025;-63
2024/03/19 03:50:22;;;;;;;18.95;10.30;;;11.20;92.00;;;;;;5049034;28;20044;-62
2024/03/19 03:52:47;;;;;;;17.30;9.90;;;11.20;91.70;;;;;;5045595;28;20025;-62
2024/03/19 03:55:14;;;;;;;20.05;10.20;;;11.20;91.70;;;;;;5042904;28;20042;-61
2024/03/19 03:57:45;;;;;;;16.55;9.48;;;11.20;91.70;;;;;;5048040;28;20033;-62
2024/03/19 04:00:12;;;;;;;17.90;9.80;;;11.20;91.70;;;;;;5043632;28;20041;-63
2024/03/19 04:02:39;;;;;;;14.43;8.90;;;11.10;91.70;;;;;;5042937;28;20128;-62
2024/03/19 04:05:07;;;;;;;14.90;8.32;;;11.10;91.60;;;;;;5046138;28;20045;-61
2024/03/19 04:07:39;;;;;;;15.40;9.38;;;11.10;91.60;;;;;;5045412;28;20457;-63
2024/03/19 04:10:08;;;;;;;17.08;9.75;;;11.10;91.70;;;;;;5046007;28;20416;-62
2024/03/19 04:12:35;;;;;;;14.77;9.23;;;11.10;91.60;;;;;;5038791;28;20057;-62
2024/03/19 04:15:01;;;;;;;16.48;9.30;;;11.10;91.60;;;;;;5044259;28;20051;-60
2024/03/19 04:17:27;;;;;;;18.77;10.40;;;11.10;91.60;;;;;;5047146;28;20497;-61
2024/03/19 04:19:53;;;;;;;16.58;9.63;;;11.00;91.60;;;;;;5040166;28;20026;-63
2024/03/19 04:22:19;;;;;;;17.63;9.85;;;11.00;91.60;;;;;;5047889;28;20488;-61
2024/03/19 04:24:44;;;;;;;17.27;9.65;;;11.00;91.60;;;;;;5044066;28;20044;-62
2024/03/19 04:27:10;;;;;;;17.48;9.57;;;11.00;91.60;;;;;;5039960;28;20036;-62
2024/03/19 04:29:35;;;;;;;15.90;9.43;;;11.00;91.60;;;;;;5041317;28;20033;-62
2024/03/19 04:32:01;;;;;;;16.10;9.45;;;11.00;91.60;;;;;;5041642;28;20468;-63
2024/03/19 04:34:27;;;;;;;18.50;10.30;;;11.00;91.60;;;;;;5041272;28;20086;-62
2024/03/19 04:36:53;;;;;;;18.35;10.35;;;11.00;91.70;;;;;;5045129;28;20029;-63
2024/03/19 04:39:18;;;;;;;17.50;10.73;;;10.90;91.60;;;;;;5043484;28;20515;-62
2024/03/19 04:41:45;;;;;;;18.90;11.18;;;10.90;91.70;;;;;;5041271;28;20048;-62
2024/03/19 04:44:10;;;;;;;16.40;10.40;;;10.90;91.70;;;;;;5040354;28;20496;-62
2024/03/19 04:46:36;;;;;;;18.70;10.55;;;10.80;91.60;;;;;;5042361;28;20083;-62
2024/03/19 04:49:02;;;;;;;18.38;10.02;;;10.90;91.70;;;;;;5040083;28;20869;-61
2024/03/19 04:51:29;;;;;;;18.02;10.05;;;10.80;91.70;;;;;;5046043;28;20710;-62
2024/03/19 04:53:54;;;;;;;16.67;10.25;;;10.80;91.80;;;;;;5046960;28;20044;-60
2024/03/19 04:56:20;;;;;;;18.95;10.88;;;10.80;91.90;;;;;;5044448;28;20058;-61
2024/03/19 04:58:46;;;;;;;19.60;11.32;;;10.70;91.90;;;;;;5042212;28;20033;-61
2024/03/19 05:01:16;;;;;;;17.67;10.32;;;10.80;91.90;;;;;;5041167;28;20029;-60
2024/03/19 05:03:42;;;;;;;15.93;9.85;;;10.80;91.90;;;;;;5042168;28;20029;-62
2024/03/19 05:06:08;;;;;;;14.45;9.30;;;10.80;91.90;;;;;;5042851;28;20579;-62
2024/03/19 05:08:34;;;;;;;16.33;9.90;;;10.80;91.90;;;;;;5040991;28;20029;-62
2024/03/19 05:11:00;;;;;;;16.48;10.13;;;10.80;91.90;;;;;;5041730;28;20159;-61
2024/03/19 05:13:26;;;;;;;19.05;11.15;;;10.80;91.90;;;;;;5040293;28;20552;-60
2024/03/19 05:15:51;;;;;;;16.83;11.05;;;10.80;91.90;;;;;;5041487;28;20078;-63
2024/03/19 05:18:17;;;;;;;15.25;9.55;;;10.80;91.80;;;;;;5044462;28;20488;-62
2024/03/19 05:20:42;;;;;;;16.23;9.88;;;10.80;91.80;;;;;;5034964;28;20029;-61
2024/03/19 05:23:08;;;;;;;15.80;10.05;;;10.80;91.80;;;;;;5048248;28;20056;-61
2024/03/19 05:25:33;;;;;;;21.02;11.85;;;10.80;91.90;;;;;;5045586;28;20490;-63
2024/03/19 05:27:59;;;;;;;23.48;13.18;;;10.80;91.90;;;;;;5045669;28;20121;-62
2024/03/19 05:30:27;;;;;;;19.23;11.40;;;10.80;91.90;;;;;;5043942;28;20033;-61
2024/03/19 05:32:53;;;;;;;18.42;10.90;;;10.80;91.90;;;;;;5042911;28;20029;-62
2024/03/19 05:35:18;;;;;;;16.23;9.70;;;10.80;91.90;;;;;;5042655;28;20427;-61
2024/03/19 05:37:44;;;;;;;14.70;9.30;;;10.80;92.00;;;;;;5046747;28;20033;-60
2024/03/19 05:40:12;;;;;;;16.27;9.27;;;10.80;92.00;;;;;;5048373;28;20033;-61
2024/03/19 05:42:38;;;;;;;14.25;8.93;;;10.80;91.90;;;;;;5047204;28;20041;-61
2024/03/19 05:45:04;;;;;;;18.73;10.07;;;10.80;91.90;;;;;;5049415;28;20033;-59
2024/03/19 05:47:31;;;;;;;18.30;10.27;;;10.80;91.90;;;;;;5040785;28;20453;-62
2024/03/19 05:49:57;;;;;;;17.83;9.88;;;10.90;92.00;;;;;;5044669;28;20102;-62
2024/03/19 05:52:24;;;;;;;15.32;9.48;;;10.90;92.00;;;;;;5047517;28;20037;-62
2024/03/19 05:54:50;;;;;;;17.00;10.07;;;10.90;92.00;;;;;;5039687;28;20076;-62
2024/03/19 05:57:16;;;;;;;17.83;10.10;;;10.90;92.00;;;;;;5049738;28;20040;-60
2024/03/19 05:59:42;;;;;;;17.02;9.63;;;10.90;91.90;;;;;;5046895;28;20509;-62
2024/03/19 06:02:09;;;;;;;17.52;10.18;;;10.90;91.90;;;;;;5046088;28;20040;-61
2024/03/19 06:04:35;;;;;;;15.88;9.57;;;10.90;92.30;;;;;;5049220;28;20197;-63
2024/03/19 06:07:00;;;;;;;16.85;9.45;;;10.90;91.90;;;;;;5042963;28;20029;-62
2024/03/19 06:09:29;;;;;;;17.15;10.15;;;10.90;91.90;;;;;;5048287;28;20100;-62
2024/03/19 06:11:55;;;;;;;14.07;8.98;;;10.90;91.90;;;;;;5039854;28;20156;-62
2024/03/19 06:14:20;;;;;;;16.25;9.02;;;10.90;91.90;;;;;;5045283;28;20104;-62
2024/03/19 06:16:46;;;;;;;13.70;7.85;;;10.90;91.90;;;;;;5046442;28;20044;-62
2024/03/19 06:19:11;;;;;;;13.55;7.53;;;10.90;91.90;;;;;;5046873;28;20381;-62
2024/03/19 06:21:37;;;;;;;14.30;8.30;;;10.90;92.00;;;;;;5048312;28;20044;-61
2024/03/19 06:24:04;;;;;;;14.57;8.38;;;10.90;92.00;;;;;;5036282;28;20033;-62
2024/03/19 06:26:30;;;;;;;12.98;7.57;;;10.90;92.00;;;;;;5043525;28;20042;-61
2024/03/19 06:28:56;;;;;;;13.85;7.75;;;10.90;92.00;;;;;;5048324;28;20028;-62
2024/03/19 06:31:21;;;;;;;12.98;7.78;;;10.90;92.00;;;;;;5047101;28;20573;-61
2024/03/19 06:33:47;;;;;;;13.82;7.75;;;10.90;92.00;;;;;;5044688;28;20034;-62
2024/03/19 06:36:13;;;;;;;14.15;7.00;;;10.90;92.00;;;;;;5045747;28;20226;-62
2024/03/19 06:38:39;;;;;;;12.45;7.40;;;10.90;92.00;;;;;;5047520;28;20140;-62
2024/03/19 06:41:05;;;;;;;13.40;7.07;;;10.90;92.00;;;;;;5048179;28;20059;-62
2024/03/19 06:43:30;;;;;;;11.70;6.88;;;11.00;91.90;;;;;;5045716;28;20029;-62
2024/03/19 06:45:56;;;;;;;10.82;6.40;;;10.90;91.90;;;;;;5046885;28;20039;-63
2024/03/19 06:48:24;;;;;;;15.55;7.35;;;10.90;92.00;;;;;;5041929;28;20025;-61
2024/03/19 06:50:49;;;;;;;17.45;7.28;;;10.90;92.00;;;;;;5044926;28;20037;-60
2024/03/19 06:53:15;;;;;;;14.70;8.02;;;11.00;92.00;;;;;;5047735;28;20374;-62
2024/03/19 06:55:41;;;;;;;13.27;7.38;;;11.00;92.00;;;;;;5043006;28;20382;-61
2024/03/19 06:58:07;;;;;;;13.48;7.63;;;11.00;92.00;;;;;;5047747;28;20057;-62
2024/03/19 07:00:33;;;;;;;13.00;7.47;;;11.00;92.00;;;;;;5043070;28;20056;-61
2024/03/19 07:02:59;;;;;;;13.85;7.38;;;11.00;92.00;;;;;;5041844;28;20554;-61
2024/03/19 07:05:24;;;;;;;15.45;7.43;;;11.00;92.00;;;;;;5052981;28;20080;-61
2024/03/19 07:07:54;;;;;;;15.18;7.80;;;11.00;92.00;;;;;;5047372;28;20032;-62
2024/03/19 07:10:20;;;;;;;15.45;8.27;;;11.00;92.00;;;;;;5050402;28;20035;-62
2024/03/19 07:12:46;;;;;;;15.02;7.80;;;11.10;92.10;;;;;;5046433;28;20037;-62
2024/03/19 07:15:14;;;;;;;14.38;8.18;;;11.10;92.10;;;;;;5049349;28;20041;-63
2024/03/19 07:17:41;;;;;;;15.02;7.90;;;11.10;91.90;;;;;;5050341;28;20035;-61
2024/03/19 07:20:12;;;;;;;14.57;7.85;;;11.10;91.90;;;;;;5048547;28;20607;-61
2024/03/19 07:22:40;;;;;;;13.95;7.50;;;11.10;91.90;;;;;;5049691;28;20037;-61
2024/03/19 07:25:07;;;;;;;13.20;7.60;;;11.10;92.00;;;;;;5045020;28;20512;-61
2024/03/19 07:27:42;;;;;;;15.02;7.80;;;11.10;92.00;;;;;;5047367;28;20040;-61
2024/03/19 07:30:12;;;;;;;21.02;8.30;;;11.10;92.10;;;;;;5046759;28;20519;-62
2024/03/19 07:32:41;;;;;;;15.95;8.40;;;11.10;92.10;;;;;;5053318;28;20036;-62
2024/03/19 07:35:08;;;;;;;17.45;8.30;;;11.10;92.10;;;;;;5047434;28;20033;-62
2024/03/19 07:37:36;;;;;;;14.73;7.32;;;11.10;92.10;;;;;;5048123;28;20161;-62
2024/03/19 07:40:12;;;;;;;14.85;7.78;;;11.10;92.10;;;;;;5044461;28;20033;-61
2024/03/19 07:42:39;;;;;;;13.80;7.43;;;11.20;92.20;;;;;;5047197;28;20029;-61
2024/03/19 07:45:05;;;;;;;12.95;7.63;;;11.30;92.20;;;;;;5047130;28;20033;-62
2024/03/19 07:47:32;;;;;;;12.80;7.55;;;11.30;92.20;;;;;;5048461;28;20308;-61
2024/03/19 07:49:59;;;;;;;14.10;7.05;;;11.40;92.10;;;;;;5041924;28;20033;-62
2024/03/19 07:52:24;;;;;;;12.55;7.10;;;11.50;92.10;;;;;;5048774;28;20029;-62
2024/03/19 07:54:50;;;;;;;12.55;7.05;;;11.50;92.20;;;;;;5049204;28;20118;-61
2024/03/19 07:57:16;;;;;;;12.07;6.68;;;11.50;92.20;;;;;;5048714;28;20089;-62
2024/03/19 07:59:42;;;;;;;11.52;6.55;;;11.60;92.10;;;;;;5045753;28;20443;-61
2024/03/19 08:02:08;;;;;;;10.43;6.13;;;11.70;92.00;;;;;;5054099;28;20045;-61
2024/03/19 08:04:33;;;;;;;10.45;6.70;;;11.70;91.80;;;;;;5049156;28;20444;-62
2024/03/19 08:06:59;;;;;;;10.88;6.75;;;11.80;91.70;;;;;;5048842;28;20123;-61
2024/03/19 08:09:25;;;;;;;10.68;5.88;;;11.80;92.00;;;;;;5048511;28;20029;-60
2024/03/19 08:11:50;;;;;;;10.20;6.60;;;11.90;91.70;;;;;;5048455;28;20064;-62
2024/03/19 08:14:16;;;;;;;11.40;6.88;;;11.90;91.60;;;;;;5040792;28;20044;-61
2024/03/19 08:16:42;;;;;;;10.07;6.50;;;12.00;91.70;;;;;;5043284;28;20025;-63
2024/03/19 08:19:11;;;;;;;10.82;6.72;;;12.00;91.60;;;;;;5050025;28;20072;-62
2024/03/19 08:21:37;;;;;;;11.02;7.18;;;12.10;91.50;;;;;;5044150;28;20038;-62
2024/03/19 08:24:03;;;;;;;10.77;6.85;;;12.10;91.50;;;;;;5043164;28;20363;-62
2024/03/19 08:26:29;;;;;;;12.90;7.30;;;12.20;91.50;;;;;;5052609;28;20492;-62
2024/03/19 08:28:55;;;;;;;13.43;7.30;;;12.20;91.40;;;;;;5047349;28;20036;-59
2024/03/19 08:31:20;;;;;;;11.30;6.82;;;12.30;91.10;;;;;;5043144;28;20186;-62
2024/03/19 08:33:46;;;;;;;10.68;6.90;;;12.30;91.00;;;;;;5052039;28;20557;-61
2024/03/19 08:36:11;;;;;;;11.20;7.03;;;12.30;91.00;;;;;;5044988;28;20211;-61
2024/03/19 08:38:37;;;;;;;10.77;6.80;;;12.30;91.00;;;;;;5048620;28;20515;-62
2024/03/19 08:41:06;;;;;;;12.57;6.93;;;12.30;91.10;;;;;;5045382;28;20036;-61
2024/03/19 08:43:31;;;;;;;10.40;7.10;;;12.40;91.20;;;;;;5036921;28;20096;-62
2024/03/19 08:45:57;;;;;;;11.95;6.90;;;12.40;91.30;;;;;;5045537;28;20496;-61
2024/03/19 08:48:23;;;;;;;10.98;6.28;;;12.50;91.30;;;;;;5048141;28;20496;-62
2024/03/19 08:50:49;;;;;;;10.75;6.95;;;12.50;91.20;;;;;;5045853;28;20037;-62
2024/03/19 08:53:14;;;;;;;10.77;6.50;;;12.60;91.00;;;;;;5047862;28;20053;-62
2024/03/19 08:55:42;;;;;;;9.18;6.13;;;12.70;90.70;;;;;;5040392;28;20033;-61
2024/03/19 08:58:08;;;;;;;9.63;6.10;;;12.60;90.40;;;;;;5046302;28;20036;-62
2024/03/19 09:00:33;;;;;;;9.77;5.80;;;12.70;90.40;;;;;;5043923;28;20408;-61
2024/03/19 09:02:59;;;;;;;9.85;6.25;;;12.70;90.40;;;;;;5047000;28;20037;-62
2024/03/19 09:05:25;;;;;;;11.15;6.57;;;12.70;90.30;;;;;;5048970;28;20035;-63
2024/03/19 09:07:51;;;;;;;9.20;6.00;;;12.70;90.30;;;;;;5043621;28;20037;-63
2024/03/19 09:10:17;;;;;;;10.13;6.55;;;12.70;90.10;;;;;;5048296;28;20033;-63
2024/03/19 09:12:44;;;;;;;10.80;5.93;;;12.70;90.00;;;;;;5040521;28;20558;-62
2024/03/19 09:15:11;;;;;;;9.18;5.70;;;12.70;90.20;;;;;;5047784;28;20028;-63
2024/03/19 09:17:40;;;;;;;9.63;6.20;;;12.80;90.20;;;;;;5050234;28;20024;-62
2024/03/19 09:20:06;;;;;;;9.20;6.20;;;12.80;90.20;;;;;;5045692;28;20064;-62
2024/03/19 09:22:32;;;;;;;7.68;5.22;;;12.80;90.30;;;;;;5047385;28;20044;-62
2024/03/19 09:24:59;;;;;;;7.65;5.60;;;12.90;90.40;;;;;;5046996;28;20116;-63
2024/03/19 09:27:25;;;;;;;9.57;5.93;;;13.00;90.30;;;;;;5047153;28;20029;-63
2024/03/19 09:29:51;;;;;;;9.10;5.88;;;12.90;90.20;;;;;;5047731;28;20028;-62
2024/03/19 09:32:16;;;;;;;8.48;5.80;;;13.00;90.20;;;;;;5046199;28;20041;-63
2024/03/19 09:34:43;;;;;;;10.48;6.13;;;13.10;90.20;;;;;;5046429;28;20041;-61
2024/03/19 09:37:09;;;;;;;10.55;5.63;;;13.10;89.50;;;;;;5048161;28;20380;-63
2024/03/19 09:39:34;;;;;;;8.23;5.75;;;13.10;89.70;;;;;;5047317;28;20573;-63
2024/03/19 09:42:05;;;;;;;7.43;5.35;;;13.20;89.90;;;;;;5047798;28;20091;-63
2024/03/19 09:44:31;;;;;;;9.13;5.43;;;13.20;89.50;;;;;;5045832;28;20041;-62
2024/03/19 09:46:58;;;;;;;7.75;5.18;;;13.30;89.80;;;;;;5046036;28;20033;-62
2024/03/19 09:49:32;;;;;;;6.93;4.90;;;13.30;89.50;;;;;;5052650;28;20029;-62
2024/03/19 09:52:00;;;;;;;9.27;5.82;;;13.40;89.20;;;;;;5047162;28;20281;-62
2024/03/19 09:54:26;;;;;;;7.28;5.07;;;13.40;88.50;;;;;;5048515;28;20516;-63
2024/03/19 09:56:52;;;;;;;8.30;5.80;;;13.40;88.90;;;;;;5047153;28;20074;-62
2024/03/19 09:59:17;;;;;;;9.18;5.80;;;13.40;89.30;;;;;;5046235;28;20041;-63
2024/03/19 10:01:43;;;;;;;7.50;5.28;;;13.40;89.50;;;;;;5046104;28;20408;-63
2024/03/19 10:04:19;;;;;;;7.35;5.38;;;13.40;89.30;;;;;;5046331;28;20037;-63
2024/03/19 10:06:45;;;;;;;9.48;5.88;;;13.50;89.30;;;;;;5045830;28;20059;-62
2024/03/19 10:09:11;;;;;;;7.65;5.63;;;13.50;89.60;;;;;;5047672;28;20025;-63
2024/03/19 10:11:37;;;;;;;8.25;5.47;;;13.60;89.70;;;;;;5040900;28;20044;-63
2024/03/19 10:14:03;;;;;;;7.68;5.25;;;13.70;89.70;;;;;;5046664;28;20089;-61
2024/03/19 10:16:32;;;;;;;7.03;5.30;;;13.80;89.30;;;;;;5046901;28;20509;-63
2024/03/19 10:18:57;;;;;;;8.75;5.78;;;13.80;89.00;;;;;;5036428;28;20037;-62
2024/03/19 10:21:23;;;;;;;8.23;5.40;;;13.90;88.80;;;;;;5047020;28;20574;-63
2024/03/19 10:23:49;;;;;;;6.90;5.40;;;13.90;88.40;;;;;;5045284;28;20038;-62
2024/03/19 10:26:18;;;;;;;9.00;5.50;;;13.90;88.50;;;;;;5046089;28;20040;-63
2024/03/19 10:28:45;;;;;;;8.48;5.70;;;13.90;88.10;;;;;;5042455;28;20150;-63
2024/03/19 10:31:11;;;;;;;7.40;5.38;;;13.90;87.80;;;;;;5040705;28;20029;-63
2024/03/19 10:33:37;;;;;;;7.63;5.07;;;14.00;88.10;;;;;;5048969;28;20029;-63
2024/03/19 10:36:04;;;;;;;6.88;5.75;;;14.00;87.80;;;;;;5049468;28;20021;-63
2024/03/19 10:38:30;;;;;;;7.57;5.22;;;14.00;87.60;;;;;;5046145;28;20467;-63
2024/03/19 10:40:59;;;;;;;9.68;5.40;;;14.00;87.40;;;;;;5047368;28;20029;-62
2024/03/19 10:43:26;;;;;;;6.32;5.10;;;14.00;87.20;;;;;;5048353;28;20045;-63
2024/03/19 10:45:52;;;;;;;6.32;5.15;;;14.00;87.90;;;;;;5048966;28;20033;-63
2024/03/19 10:48:19;;;;;;;6.65;5.30;;;14.10;87.40;;;;;;5050222;28;20116;-63
2024/03/19 10:50:49;;;;;;;6.28;5.07;;;14.10;87.20;;;;;;5051213;28;20029;-64
2024/03/19 10:53:19;;;;;;;6.47;4.90;;;14.10;87.60;;;;;;5052551;28;20024;-63
2024/03/19 10:55:50;;;;;;;6.13;4.78;;;14.20;87.60;;;;;;5049349;28;20025;-63
2024/03/19 10:58:18;;;;;;;7.43;5.10;;;14.20;88.10;;;;;;5050163;28;20086;-63
2024/03/19 11:00:46;;;;;;;8.27;5.70;;;14.30;88.00;;;;;;5049257;28;20033;-63
2024/03/19 11:03:15;;;;;;;7.65;5.68;;;14.40;87.60;;;;;;5048554;28;20065;-63
2024/03/19 11:05:45;;;;;;;7.72;5.72;;;14.50;86.20;;;;;;5046258;28;20055;-63
2024/03/19 11:08:11;;;;;;;7.85;5.88;;;14.50;86.40;;;;;;5055337;28;20071;-63
2024/03/19 11:10:38;;;;;;;6.32;5.22;;;14.60;86.80;;;;;;5044900;28;20521;-63
2024/03/19 11:13:24;;;;;;;6.97;5.28;;;14.60;87.00;;;;;;5049601;28;20041;-63
2024/03/19 11:15:49;;;;;;;7.35;5.03;;;14.60;84.60;;;;;;5045695;28;20071;-61
2024/03/19 11:18:15;;;;;;;6.60;5.00;;;14.70;85.30;;;;;;5051626;28;20530;-63
2024/03/19 11:20:47;;;;;;;5.28;4.78;;;14.70;84.40;;;;;;5044300;28;20051;-63
2024/03/19 11:23:18;;;;;;;7.45;5.43;;;14.80;85.00;;;;;;5051421;28;20519;-64
2024/03/19 11:25:47;;;;;;;5.78;4.93;;;14.80;86.30;;;;;;5046185;28;20025;-63
2024/03/19 11:28:30;;;;;;;6.55;5.25;;;14.80;85.70;;;;;;5048114;28;21374;-63
2024/03/19 11:30:57;;;;;;;6.75;5.10;;;14.90;84.40;;;;;;5049000;28;20619;-63
2024/03/19 11:33:24;;;;;;;4.97;4.25;;;15.00;85.20;;;;;;5047728;28;20045;-64
2024/03/19 11:35:51;;;;;;;5.30;4.80;;;15.00;85.20;;;;;;5048738;28;20078;-63
2024/03/19 11:38:18;;;;;;;5.07;4.57;;;15.00;84.80;;;;;;5047512;28;20036;-63
2024/03/19 11:40:44;;;;;;;6.57;4.57;;;15.10;84.30;;;;;;5049278;28;20386;-63
2024/03/19 11:43:14;;;;;;;5.05;4.47;;;15.10;83.80;;;;;;5055235;28;20037;-63
2024/03/19 11:45:44;;;;;;;4.97;4.07;;;15.20;82.70;;;;;;5052767;28;20033;-63
2024/03/19 11:48:28;;;;;;;5.32;4.35;;;15.20;83.20;;;;;;5052689;28;20032;-63
2024/03/19 11:50:57;;;;;;;4.45;4.00;;;15.20;81.70;;;;;;5049185;28;20325;-63
2024/03/19 11:53:26;;;;;;;5.53;4.68;;;15.20;82.40;;;;;;5051493;28;20033;-63
2024/03/19 11:55:54;;;;;;;5.93;5.10;;;15.30;81.90;;;;;;5051789;28;20025;-63
2024/03/19 11:58:20;;;;;;;5.05;4.40;;;15.30;82.60;;;;;;5048677;28;20075;-63
2024/03/19 12:00:46;;;;;;;5.13;4.50;;;15.30;82.80;;;;;;5054151;28;20032;-63
2024/03/19 12:03:19;;;;;;;4.93;4.25;;;15.30;82.80;;;;;;5052033;28;20041;-63
2024/03/19 12:05:46;;;;;;;5.75;4.55;;;15.40;82.40;;;;;;5057528;28;20056;-63
2024/03/19 12:08:12;;;;;;;5.03;4.22;;;15.40;82.70;;;;;;5051614;28;20400;-62
2024/03/19 12:10:42;;;;;;;6.28;4.55;;;15.50;82.90;;;;;;5048187;28;20127;-62
2024/03/19 12:13:12;;;;;;;6.20;4.00;;;15.50;82.60;;;;;;5050673;28;20033;-63
2024/03/19 12:15:40;;;;;;;6.15;4.35;;;15.60;81.30;;;;;;5050182;28;20060;-63
2024/03/19 12:18:07;;;;;;;4.78;3.95;;;15.60;81.20;;;;;;5053980;28;20033;-63
2024/03/19 12:20:34;;;;;;;4.57;4.18;;;15.60;81.30;;;;;;5049881;28;20439;-63
2024/03/19 12:23:00;;;;;;;5.72;3.70;;;15.60;80.50;;;;;;5049698;28;20037;-62
2024/03/19 12:25:27;;;;;;;4.28;3.88;;;15.60;80.30;;;;;;5054913;28;20655;-62
2024/03/19 12:27:53;;;;;;;5.57;4.25;;;15.70;80.40;;;;;;5048606;28;20060;-63
2024/03/19 12:30:20;;;;;;;6.07;4.05;;;15.70;80.40;;;;;;5049260;28;20127;-63
2024/03/19 12:33:10;;;;;;;4.07;3.67;;;15.70;79.80;;;;;;5048070;28;20033;-63